createdAt,value
2023-02-18T00:02:30.575Z,99056.03
2023-02-18T00:05:23.093Z,99047.75
2023-02-18T00:08:05.861Z,99060.59
2023-02-18T00:10:47.378Z,99058.28
2023-02-18T00:13:27.864Z,99058.69
2023-02-18T00:16:10.042Z,99061.16
2023-02-18T00:18:51.880Z,99063.22
2023-02-18T00:21:37.464Z,99067.69
2023-02-18T00:24:26.617Z,99063.94
2023-02-18T00:27:12.760Z,99071.78
2023-02-18T00:29:55.974Z,99073.47
2023-02-18T00:32:42.880Z,99071.47
2023-02-18T00:35:23.256Z,99079.97
2023-02-18T00:38:06.902Z,99087.72
2023-02-18T00:40:55.399Z,99090.81
2023-02-18T00:43:37.107Z,99087.75
2023-02-18T00:46:20.307Z,99091.81
2023-02-18T00:48:51.369Z,99096.41
2023-02-18T00:51:21.794Z,99101.81
2023-02-18T00:53:51.704Z,99104.69
2023-02-18T00:56:20.913Z,99117.22
2023-02-18T00:58:50.707Z,99113.09
2023-02-18T01:01:20.411Z,99114.78
2023-02-18T01:03:49.389Z,99116.69
2023-02-18T01:06:18.066Z,99119.38
2023-02-18T01:08:46.733Z,99126.19
2023-02-18T01:11:16.963Z,99137.47
2023-02-18T01:13:45.367Z,99138.25
2023-02-18T01:16:13.901Z,99134.72
2023-02-18T01:18:42.352Z,99132.09
2023-02-18T01:21:11.725Z,99150.50
2023-02-18T01:23:41.990Z,99160.34
2023-02-18T01:26:12.034Z,99136.38
2023-02-18T01:28:42.355Z,99153.09
2023-02-18T01:31:14.028Z,99152.66
2023-02-18T01:33:42.792Z,99153.44
2023-02-18T01:36:14.176Z,99153.00
2023-02-18T01:38:42.502Z,99154.00
2023-02-18T01:41:12.350Z,99147.88
2023-02-18T01:43:42.333Z,99146.03
2023-02-18T01:46:22.061Z,99154.72
2023-02-18T01:48:55.254Z,99139.88
2023-02-18T01:51:27.226Z,99142.66
2023-02-18T01:53:57.722Z,99152.75
2023-02-18T01:56:30.655Z,99154.72
2023-02-18T01:59:03.171Z,99156.97
2023-02-18T02:01:33.613Z,99166.16
2023-02-18T02:04:03.321Z,99164.28
2023-02-18T02:06:32.934Z,99167.69
2023-02-18T02:09:04.843Z,99172.81
2023-02-18T02:12:08.840Z,99158.94
2023-02-18T02:14:52.064Z,99157.41
2023-02-18T02:17:31.355Z,99164.59
2023-02-18T02:20:24.127Z,99167.63
2023-02-18T02:23:25.169Z,99176.59
2023-02-18T02:26:36.182Z,99166.00
2023-02-18T02:29:58.232Z,99168.81
2023-02-18T02:32:56.109Z,99184.63
2023-02-18T02:35:27.720Z,99179.53
2023-02-18T02:38:04.385Z,99176.19
2023-02-18T02:40:39.874Z,99183.34
2023-02-18T02:43:16.798Z,99174.75
2023-02-18T02:45:55.971Z,99176.44
2023-02-18T02:48:30.964Z,99179.09
2023-02-18T02:51:09.091Z,99175.03
2023-02-18T02:53:41.132Z,99176.16
2023-02-18T02:56:16.004Z,99180.66
2023-02-18T02:58:48.045Z,99175.84
2023-02-18T03:01:28.612Z,99179.69
2023-02-18T03:04:15.117Z,99175.81
2023-02-18T03:07:03.312Z,99171.97
2023-02-18T03:09:48.251Z,99181.00
2023-02-18T03:12:23.777Z,99183.59
2023-02-18T03:15:02.531Z,99178.88
2023-02-18T03:17:36.162Z,99182.28
2023-02-18T03:20:10.929Z,99190.16
2023-02-18T03:22:45.461Z,99199.59
2023-02-18T03:25:15.735Z,99189.81
2023-02-18T03:27:50.024Z,99197.84
2023-02-18T03:30:24.292Z,99200.53
2023-02-18T03:32:56.950Z,99199.94
2023-02-18T03:35:26.980Z,99199.13
2023-02-18T03:38:02.917Z,99207.44
2023-02-18T03:40:32.715Z,99204.03
2023-02-18T03:43:03.154Z,99218.09
2023-02-18T03:45:31.615Z,99210.47
2023-02-18T03:47:59.961Z,99211.31
2023-02-18T03:50:28.479Z,99214.00
2023-02-18T03:52:58.241Z,99202.78
2023-02-18T03:55:26.633Z,99216.72
2023-02-18T03:57:55.170Z,99221.34
2023-02-18T04:00:23.699Z,99221.44
2023-02-18T04:02:52.107Z,99215.47
2023-02-18T04:05:20.464Z,99213.53
2023-02-18T04:07:48.785Z,99222.19
2023-02-18T04:10:18.734Z,99216.19
2023-02-18T04:12:47.774Z,99219.66
2023-02-18T04:15:16.158Z,99227.34
2023-02-18T04:17:44.603Z,99215.81
2023-02-18T04:20:13.728Z,99207.41
2023-02-18T04:22:41.999Z,99224.19
2023-02-18T04:25:10.152Z,99226.91
2023-02-18T04:27:40.083Z,99249.56
2023-02-18T04:30:10.007Z,99235.00
2023-02-18T04:32:38.517Z,99231.56
2023-02-18T04:35:07.740Z,99243.03
2023-02-18T04:37:35.824Z,99224.94
2023-02-18T04:40:04.481Z,99244.00
2023-02-18T04:42:32.798Z,99234.44
2023-02-18T04:45:02.672Z,99232.69
2023-02-18T04:47:31.427Z,99237.16
2023-02-18T04:50:00.232Z,99247.72
2023-02-18T04:52:28.501Z,99256.53
2023-02-18T04:54:56.786Z,99240.13
2023-02-18T04:57:25.090Z,99246.91
2023-02-18T04:59:53.413Z,99257.25
2023-02-18T05:02:23.154Z,99252.09
2023-02-18T05:04:51.414Z,99261.69
2023-02-18T05:07:19.825Z,99267.88
2023-02-18T05:09:48.452Z,99276.63
2023-02-18T05:12:16.801Z,99260.94
2023-02-18T05:14:45.969Z,99258.28
2023-02-18T05:17:14.327Z,99239.34
2023-02-18T05:19:44.334Z,99255.03
2023-02-18T05:22:12.912Z,99254.50
2023-02-18T05:24:41.438Z,99260.50
2023-02-18T05:27:10.064Z,99249.13
2023-02-18T05:29:38.462Z,99247.44
2023-02-18T05:32:07.648Z,99257.03
2023-02-18T05:34:36.549Z,99257.94
2023-02-18T05:37:06.369Z,99268.50
2023-02-18T05:39:34.681Z,99265.13
2023-02-18T05:42:03.091Z,99256.41
2023-02-18T05:44:31.519Z,99267.69
2023-02-18T05:47:00.638Z,99266.00
2023-02-18T05:49:29.429Z,99262.47
2023-02-18T05:51:58.304Z,99265.94
2023-02-18T05:54:29.503Z,99269.31
2023-02-18T05:56:57.894Z,99271.00
2023-02-18T05:59:26.405Z,99272.03
2023-02-18T06:01:55.722Z,99270.19
2023-02-18T06:04:24.151Z,99290.03
2023-02-18T06:06:52.469Z,99279.66
2023-02-18T06:09:24.059Z,99266.66
2023-02-18T06:11:54.538Z,99277.06
2023-02-18T06:14:22.864Z,99283.13
2023-02-18T06:16:51.754Z,99297.03
2023-02-18T06:19:20.035Z,99289.16
2023-02-18T06:21:48.370Z,99290.75
2023-02-18T06:24:16.840Z,99290.75
2023-02-18T06:26:45.752Z,99295.16
2023-02-18T06:29:15.662Z,99289.09
2023-02-18T06:31:44.373Z,99314.22
2023-02-18T06:34:13.184Z,99308.97
2023-02-18T06:36:44.127Z,99321.00
2023-02-18T06:39:12.698Z,99308.81
2023-02-18T06:41:41.717Z,99314.81
2023-02-18T06:44:11.409Z,99308.69
2023-02-18T06:46:41.335Z,99313.91
2023-02-18T06:49:09.577Z,99312.94
2023-02-18T06:51:37.919Z,99311.00
2023-02-18T06:54:07.004Z,99317.06
2023-02-18T06:56:35.404Z,99327.38
2023-02-18T06:59:05.262Z,99328.75
2023-02-18T07:01:34.494Z,99323.31
2023-02-18T07:04:04.557Z,99340.50
2023-02-18T07:06:32.944Z,99343.59
2023-02-18T07:09:01.553Z,99340.38
2023-02-18T07:11:29.897Z,99352.78
2023-02-18T07:13:58.201Z,99366.31
2023-02-18T07:16:26.619Z,99370.59
2023-02-18T07:18:55.167Z,99360.16
2023-02-18T07:21:25.164Z,99357.63
2023-02-18T07:23:53.865Z,99353.28
2023-02-18T07:26:23.517Z,99359.25
2023-02-18T07:28:51.819Z,99354.78
2023-02-18T07:31:21.090Z,99375.81
2023-02-18T07:33:50.728Z,99371.91
2023-02-18T07:36:19.124Z,99368.09
2023-02-18T07:38:49.025Z,99378.44
2023-02-18T07:41:20.146Z,99372.34
2023-02-18T07:43:48.768Z,99388.75
2023-02-18T07:46:17.989Z,99378.31
2023-02-18T07:48:46.285Z,99373.09
2023-02-18T07:51:14.764Z,99366.22
2023-02-18T07:53:43.313Z,99379.34
2023-02-18T07:56:13.456Z,99368.97
2023-02-18T07:58:41.804Z,99376.03
2023-02-18T08:01:12.811Z,99383.09
2023-02-18T08:03:41.244Z,99389.19
2023-02-18T08:06:10.504Z,99382.34
2023-02-18T08:08:38.828Z,99397.91
2023-02-18T08:11:18.646Z,99393.56
2023-02-18T08:13:49.404Z,99397.84
2023-02-18T08:16:18.492Z,99401.31
2023-02-18T08:18:48.001Z,99415.25
2023-02-18T08:21:16.781Z,99406.59
2023-02-18T08:23:45.917Z,99404.69
2023-02-18T08:26:15.201Z,99412.31
2023-02-18T08:28:45.176Z,99415.72
2023-02-18T08:31:21.289Z,99405.91
2023-02-18T08:33:50.526Z,99397.06
2023-02-18T08:36:19.131Z,99406.25
2023-02-18T08:38:48.502Z,99398.94
2023-02-18T08:41:19.159Z,99407.31
2023-02-18T08:43:48.284Z,99402.31
2023-02-18T08:46:33.322Z,99390.59
2023-02-18T08:49:04.614Z,99392.47
2023-02-18T08:51:33.729Z,99397.44
2023-02-18T08:54:02.883Z,99396.53
2023-02-18T08:56:31.881Z,99385.38
2023-02-18T08:59:00.700Z,99387.75
2023-02-18T09:01:30.767Z,99384.47
2023-02-18T09:03:59.285Z,99386.38
2023-02-18T09:06:29.442Z,99386.09
2023-02-18T09:08:58.021Z,99383.81
2023-02-18T09:11:26.538Z,99382.38
2023-02-18T09:13:55.025Z,99387.19
2023-02-18T09:16:26.163Z,99391.25
2023-02-18T09:18:56.641Z,99391.47
2023-02-18T09:21:26.123Z,99392.97
2023-02-18T09:23:54.974Z,99403.34
2023-02-18T09:28:23.773Z,99393.28
2023-02-18T09:30:52.804Z,99384.06
2023-02-18T09:33:21.567Z,99378.31
2023-02-18T09:35:50.132Z,99392.59
2023-02-18T09:38:19.400Z,99394.81
2023-02-18T09:40:51.739Z,99398.13
2023-02-18T09:43:30.362Z,99396.94
2023-02-18T09:46:00.860Z,99397.41
2023-02-18T09:48:38.859Z,99397.75
2023-02-18T09:51:07.888Z,99398.75
2023-02-18T09:53:36.460Z,99386.13
2023-02-18T09:56:05.468Z,99391.69
2023-02-18T09:58:39.026Z,99395.41
2023-02-18T10:01:13.402Z,99394.66
2023-02-18T10:03:43.988Z,99397.47
2023-02-18T10:06:18.223Z,99401.91
2023-02-18T10:08:49.230Z,99388.66
2023-02-18T10:11:23.464Z,99403.28
2023-02-18T10:13:55.318Z,99404.66
2023-02-18T10:16:26.278Z,99394.50
2023-02-18T10:18:58.453Z,99404.56
2023-02-18T10:21:28.961Z,99400.34
2023-02-18T10:24:02.326Z,99394.84
2023-02-18T10:26:32.671Z,99397.38
2023-02-18T10:29:03.208Z,99407.06
2023-02-18T10:31:42.310Z,99386.41
2023-02-18T10:34:20.371Z,99387.31
2023-02-18T10:36:56.134Z,99374.81
2023-02-18T10:39:42.872Z,99388.66
2023-02-18T10:42:22.266Z,99383.28
2023-02-18T10:45:05.096Z,99357.78
2023-02-18T10:47:40.943Z,99374.97
2023-02-18T10:50:30.544Z,99374.38
2023-02-18T10:53:03.605Z,99375.09
2023-02-18T10:55:40.662Z,99387.25
2023-02-18T10:58:28.764Z,99376.66
2023-02-18T11:00:59.397Z,99382.91
2023-02-18T11:03:39.876Z,99378.91
2023-02-18T11:06:18.712Z,99378.91
2023-02-18T11:08:49.081Z,99368.66
2023-02-18T11:11:22.106Z,99357.63
2023-02-18T11:13:55.485Z,99365.66
2023-02-18T11:16:37.760Z,99370.88
2023-02-18T11:19:06.545Z,99356.88
2023-02-18T11:21:37.816Z,99362.03
2023-02-18T11:24:11.121Z,99351.78
2023-02-18T11:26:41.948Z,99358.88
2023-02-18T11:29:20.849Z,99357.00
2023-02-18T11:31:52.993Z,99358.56
2023-02-18T11:34:24.345Z,99367.97
2023-02-18T11:36:54.781Z,99363.59
2023-02-18T11:39:26.818Z,99362.34
2023-02-18T11:41:57.982Z,99361.72
2023-02-18T11:44:31.190Z,99360.09
2023-02-18T11:47:03.875Z,99360.44
2023-02-18T11:49:34.969Z,99357.13
2023-02-18T11:52:20.897Z,99349.97
2023-02-18T11:55:02.955Z,99355.72
2023-02-18T11:57:32.926Z,99357.84
2023-02-18T12:00:02.224Z,99349.25
2023-02-18T12:02:41.818Z,99344.84
2023-02-18T12:05:16.099Z,99339.78
2023-02-18T12:07:47.197Z,99334.88
2023-02-18T12:10:17.383Z,99345.31
2023-02-18T12:12:49.714Z,99343.47
2023-02-18T12:15:23.760Z,99343.31
2023-02-18T12:18:22.136Z,99333.88
2023-02-18T12:21:16.787Z,99325.25
2023-02-18T12:23:58.098Z,99329.47
2023-02-18T12:26:30.318Z,99320.66
2023-02-18T12:29:29.301Z,99324.75
2023-02-18T12:32:26.564Z,99306.53
2023-02-18T12:35:09.138Z,99313.38
2023-02-18T12:38:04.296Z,99319.66
2023-02-18T12:40:54.438Z,99311.25
2023-02-18T12:43:35.075Z,99303.53
2023-02-18T12:46:21.043Z,99297.88
2023-02-18T12:49:00.834Z,99303.22
2023-02-18T12:51:40.556Z,99296.56
2023-02-18T12:54:31.242Z,99289.84
2023-02-18T12:57:10.390Z,99291.53
2023-02-18T13:00:00.233Z,99298.44
2023-02-18T13:02:55.431Z,99289.84
2023-02-18T13:05:34.215Z,99285.31
2023-02-18T13:08:20.586Z,99287.84
2023-02-18T13:11:10.859Z,99287.78
2023-02-18T13:13:44.460Z,99273.56
2023-02-18T13:16:16.372Z,99270.78
2023-02-18T13:18:54.854Z,99253.97
2023-02-18T13:21:24.499Z,99249.31
2023-02-18T13:23:58.798Z,99259.50
2023-02-18T13:26:29.168Z,99259.38
2023-02-18T13:29:18.195Z,99249.69
2023-02-18T13:32:01.238Z,99266.41
2023-02-18T13:34:35.478Z,99273.44
2023-02-18T13:37:13.181Z,99264.13
2023-02-18T13:39:51.436Z,99262.56
2023-02-18T13:42:37.429Z,99241.91
2023-02-18T13:45:29.381Z,99249.03
2023-02-18T13:47:59.085Z,99247.47
2023-02-18T13:50:34.150Z,99256.22
2023-02-18T13:53:23.712Z,99241.56
2023-02-18T13:55:58.376Z,99238.19
2023-02-18T13:58:33.070Z,99241.72
2023-02-18T14:01:04.635Z,99240.25
2023-02-18T14:03:38.299Z,99238.00
2023-02-18T14:06:18.503Z,99226.06
2023-02-18T14:08:48.052Z,99211.41
2023-02-18T14:11:35.898Z,99212.31
2023-02-18T14:14:45.077Z,99208.03
2023-02-18T14:17:36.448Z,99200.41
2023-02-18T14:20:47.006Z,99197.84
2023-02-18T14:24:07.257Z,99187.59
2023-02-18T14:26:40.867Z,99180.75
2023-02-18T14:29:17.185Z,99176.41
2023-02-18T14:31:54.098Z,99171.19
2023-02-18T14:34:47.483Z,99177.28
2023-02-18T14:37:51.138Z,99180.81
2023-02-18T14:40:29.835Z,99173.81
2023-02-18T14:43:08.702Z,99170.38
2023-02-18T14:46:15.342Z,99168.59
2023-02-18T14:49:02.320Z,99165.91
2023-02-18T14:51:33.388Z,99179.66
2023-02-18T14:54:07.610Z,99181.38
2023-02-18T14:56:41.012Z,99173.69
2023-02-18T14:59:14.196Z,99153.00
2023-02-18T15:01:42.701Z,99155.84
2023-02-18T15:04:15.973Z,99163.19
2023-02-18T15:06:44.447Z,99154.66
2023-02-18T15:09:19.416Z,99148.69
2023-02-18T15:11:52.360Z,99153.03
2023-02-18T15:14:28.754Z,99139.22
2023-02-18T15:16:58.717Z,99140.28
2023-02-18T15:19:30.527Z,99142.91
2023-02-18T15:21:59.671Z,99137.81
2023-02-18T15:24:32.867Z,99135.28
2023-02-18T15:27:05.010Z,99132.91
2023-02-18T15:29:36.553Z,99134.78
2023-02-18T15:32:16.925Z,99134.09
2023-02-18T15:34:48.179Z,99129.78
2023-02-18T15:37:17.049Z,99131.59
2023-02-18T15:39:47.754Z,99120.47
2023-02-18T15:42:27.751Z,99131.19
2023-02-18T15:45:03.864Z,99144.59
2023-02-18T15:47:33.662Z,99139.00
2023-02-18T15:50:04.247Z,99134.41
2023-02-18T15:52:39.722Z,99132.38
2023-02-18T15:55:15.022Z,99129.47
2023-02-18T15:57:44.296Z,99120.50
2023-02-18T16:00:23.047Z,99126.19
2023-02-18T16:02:55.327Z,99125.84
2023-02-18T16:05:29.853Z,99124.75
2023-02-18T16:08:01.495Z,99118.38
2023-02-18T16:10:54.541Z,99124.00
2023-02-18T16:13:26.691Z,99132.16
2023-02-18T16:15:57.422Z,99133.56
2023-02-18T16:18:29.117Z,99139.13
2023-02-18T16:21:01.693Z,99146.38
2023-02-18T16:23:37.682Z,99145.72
2023-02-18T16:26:20.290Z,99148.44
2023-02-18T16:28:51.461Z,99143.34
2023-02-18T16:31:22.328Z,99143.38
2023-02-18T16:33:51.492Z,99136.69
2023-02-18T16:36:27.500Z,99146.47
2023-02-18T16:38:56.217Z,99145.03
2023-02-18T16:41:25.071Z,99144.59
2023-02-18T16:43:54.115Z,99142.34
2023-02-18T16:46:25.164Z,99147.88
2023-02-18T16:48:56.591Z,99150.78
2023-02-18T16:51:31.165Z,99151.13
2023-02-18T16:54:00.135Z,99148.78
2023-02-18T16:57:17.063Z,99138.59
2023-02-18T16:59:46.046Z,99134.50
2023-02-18T17:02:19.857Z,99134.81
2023-02-18T17:04:48.544Z,99130.84
2023-02-18T17:07:17.368Z,99126.88
2023-02-18T17:09:46.407Z,99122.88
2023-02-18T17:12:15.077Z,99114.47
2023-02-18T17:14:43.878Z,99118.88
2023-02-18T17:17:14.243Z,99125.06
2023-02-18T17:19:44.160Z,99125.28
2023-02-18T17:22:15.255Z,99118.63
2023-02-18T17:24:44.221Z,99110.94
2023-02-18T17:27:12.728Z,99117.88
2023-02-18T17:29:41.394Z,99129.28
2023-02-18T17:32:10.431Z,99118.19
2023-02-18T17:34:41.420Z,99118.19
2023-02-18T17:37:14.358Z,99112.13
2023-02-18T17:39:43.087Z,99112.13
2023-02-18T17:42:14.860Z,99116.50
2023-02-18T17:44:44.343Z,99120.00
2023-02-18T17:47:12.877Z,99118.38
2023-02-18T17:49:41.436Z,99129.66
2023-02-18T17:52:28.983Z,99128.91
2023-02-18T17:54:57.734Z,99129.75
2023-02-18T17:57:26.718Z,99124.50
2023-02-18T17:59:58.214Z,99111.59
2023-02-18T18:02:29.822Z,99116.78
2023-02-18T18:04:58.391Z,99125.47
2023-02-18T18:07:28.374Z,99125.50
2023-02-18T18:09:56.876Z,99118.56
2023-02-18T18:12:32.684Z,99117.59
2023-02-18T18:15:02.958Z,99130.56
2023-02-18T18:17:31.620Z,99128.78
2023-02-18T18:20:00.409Z,99121.88
2023-02-18T18:22:30.508Z,99113.19
2023-02-18T18:24:59.071Z,99108.94
2023-02-18T18:27:27.938Z,99100.19
2023-02-18T18:29:56.592Z,99100.25
2023-02-18T18:32:25.545Z,99103.69
2023-02-18T18:34:54.088Z,99104.53
2023-02-18T18:37:22.776Z,99114.91
2023-02-18T18:39:52.758Z,99113.19
2023-02-18T18:42:22.173Z,99106.34
2023-02-18T18:44:51.047Z,99105.47
2023-02-18T18:47:19.871Z,99092.59
2023-02-18T18:49:48.556Z,99101.25
2023-02-18T18:52:17.717Z,99105.53
2023-02-18T18:54:46.486Z,99108.13
2023-02-18T18:57:16.656Z,99105.59
2023-02-18T18:59:45.443Z,99115.91
2023-02-18T19:02:17.136Z,99105.47
2023-02-18T19:04:45.515Z,99108.03
2023-02-18T19:07:13.887Z,99099.34
2023-02-18T19:09:42.437Z,99095.88
2023-02-18T19:12:11.940Z,99083.78
2023-02-18T19:14:41.874Z,99089.78
2023-02-18T19:17:10.265Z,99081.13
2023-02-18T19:19:38.754Z,99088.88
2023-02-18T19:22:07.206Z,99108.75
2023-02-18T19:24:35.767Z,99105.22
2023-02-18T19:27:04.348Z,99121.63
2023-02-18T19:29:32.859Z,99135.47
2023-02-18T19:32:02.929Z,99127.69
2023-02-18T19:34:31.823Z,99137.94
2023-02-18T19:37:00.382Z,99145.72
2023-02-18T19:39:28.767Z,99146.59
2023-02-18T19:41:57.524Z,99144.84
2023-02-18T19:44:26.878Z,99137.06
2023-02-18T19:46:55.511Z,99141.38
2023-02-18T19:49:28.775Z,99156.06
2023-02-18T19:52:04.475Z,99167.34
2023-02-18T19:54:33.735Z,99169.94
2023-02-18T19:57:05.361Z,99178.63
2023-02-18T19:59:34.452Z,99175.06
2023-02-18T20:02:03.225Z,99172.44
2023-02-18T20:04:34.018Z,99172.41
2023-02-18T20:07:03.445Z,99174.13
2023-02-18T20:09:32.075Z,99161.25
2023-02-18T20:12:00.525Z,99177.63
2023-02-18T20:14:29.589Z,99182.81
2023-02-18T20:16:58.750Z,99183.81
2023-02-18T20:19:31.787Z,99186.47
2023-02-18T20:22:02.771Z,99185.56
2023-02-18T20:24:32.665Z,99195.06
2023-02-18T20:27:03.018Z,99193.34
2023-02-18T20:29:33.715Z,99186.50
2023-02-18T20:32:02.991Z,99195.19
2023-02-18T20:34:33.040Z,99199.59
2023-02-18T20:37:03.175Z,99200.53
2023-02-18T20:39:31.801Z,99202.19
2023-02-18T20:42:07.990Z,99210.91
2023-02-18T20:44:39.844Z,99214.41
2023-02-18T20:47:08.410Z,99223.03
2023-02-18T20:49:37.161Z,99228.19
2023-02-18T20:52:07.681Z,99234.22
2023-02-18T20:54:36.261Z,99238.59
2023-02-18T20:57:04.993Z,99241.28
2023-02-18T20:59:34.309Z,99240.38
2023-02-18T21:02:03.232Z,99236.91
2023-02-18T21:04:32.498Z,99248.16
2023-02-18T21:07:01.649Z,99241.28
2023-02-18T21:09:31.625Z,99243.06
2023-02-18T21:12:00.222Z,99253.56
2023-02-18T21:14:28.729Z,99264.88
2023-02-18T21:16:57.755Z,99277.84
2023-02-18T21:19:26.360Z,99277.72
2023-02-18T21:21:55.033Z,99276.03
2023-02-18T21:24:23.705Z,99276.06
2023-02-18T21:26:53.961Z,99271.00
2023-02-18T21:29:23.046Z,99274.56
2023-02-18T21:31:51.710Z,99277.25
2023-02-18T21:34:21.254Z,99274.00
2023-02-18T21:36:49.721Z,99291.41
2023-02-18T21:39:18.911Z,99290.56
2023-02-18T21:41:47.466Z,99293.22
2023-02-18T21:44:17.582Z,99294.09
2023-02-18T21:46:49.453Z,99301.03
2023-02-18T21:49:19.574Z,99307.88
2023-02-18T21:52:02.084Z,99310.38
2023-02-18T21:54:33.828Z,99324.84
2023-02-18T21:57:03.943Z,99330.69
2023-02-18T21:59:35.197Z,99331.41
2023-02-18T22:02:05.417Z,99333.91
2023-02-18T22:04:35.855Z,99327.75
2023-02-18T22:07:04.662Z,99334.47
2023-02-18T22:09:33.407Z,99339.59
2023-02-18T22:12:02.013Z,99347.22
2023-02-18T22:14:30.982Z,99351.47
2023-02-18T22:17:01.482Z,99357.53
2023-02-18T22:19:30.086Z,99359.16
2023-02-18T22:21:59.554Z,99362.56
2023-02-18T22:24:28.800Z,99374.59
2023-02-18T22:26:57.649Z,99367.66
2023-02-18T22:29:26.365Z,99376.25
2023-02-18T22:31:55.285Z,99382.25
2023-02-18T22:34:25.476Z,99396.88
2023-02-18T22:36:53.992Z,99392.53
2023-02-18T22:39:22.807Z,99391.56
2023-02-18T22:41:51.313Z,99384.56
2023-02-18T22:44:20.428Z,99390.59
2023-02-18T22:46:48.944Z,99392.28
2023-02-18T22:49:18.024Z,99397.34
2023-02-18T22:51:47.812Z,99413.72
2023-02-18T22:54:18.797Z,99423.22
2023-02-18T22:56:48.591Z,99411.09
2023-02-18T22:59:20.779Z,99404.16
2023-02-18T23:01:50.709Z,99413.63
2023-02-18T23:04:20.529Z,99423.13
2023-02-18T23:06:51.124Z,99434.31
2023-02-18T23:09:21.886Z,99443.78
2023-02-18T23:11:55.024Z,99445.56
2023-02-18T23:14:24.013Z,99449.06
2023-02-18T23:17:14.781Z,99441.28
2023-02-18T23:19:45.696Z,99444.69
2023-02-18T23:22:18.680Z,99448.09
2023-02-18T23:24:49.764Z,99459.41
2023-02-18T23:27:18.474Z,99458.59
2023-02-18T23:29:46.903Z,99453.44
2023-02-18T23:32:15.392Z,99458.66
2023-02-18T23:34:44.071Z,99456.97
2023-02-18T23:37:13.376Z,99463.00
2023-02-18T23:39:45.227Z,99469.13
2023-02-18T23:42:14.397Z,99473.56
2023-02-18T23:44:42.915Z,99480.59
2023-02-18T23:47:11.528Z,99478.88
2023-02-18T23:49:40.117Z,99479.81
2023-02-18T23:52:09.278Z,99488.47
2023-02-18T23:54:37.780Z,99503.06
2023-02-18T23:57:07.737Z,99501.31
2023-02-18T23:59:36.203Z,99496.25
